createdAt,value
2017-06-14T00:02:15.102Z,58.39
2017-06-14T00:04:43.000Z,60.19
2017-06-14T00:07:10.807Z,60.73
2017-06-14T00:09:38.442Z,60.88
2017-06-14T00:12:05.985Z,60.68
2017-06-14T00:14:33.537Z,60.87
2017-06-14T00:17:01.133Z,61.16
2017-06-14T00:19:28.671Z,60.99
2017-06-14T00:21:56.199Z,60.37
2017-06-14T00:24:23.779Z,60.31
2017-06-14T00:26:51.569Z,61.95
2017-06-14T00:29:19.457Z,61.53
2017-06-14T00:31:47.062Z,61.41
2017-06-14T00:34:14.879Z,61.53
2017-06-14T00:36:42.413Z,61.33
2017-06-14T00:39:10.813Z,61.28
2017-06-14T00:41:38.354Z,62.55
2017-06-14T00:44:05.922Z,62.18
2017-06-14T00:46:33.638Z,61.96
2017-06-14T00:49:01.173Z,62.36
2017-06-14T00:51:28.737Z,61.85
2017-06-14T00:53:56.350Z,61.14
2017-06-14T00:56:23.918Z,61.11
2017-06-14T00:58:51.469Z,61.20
2017-06-14T01:01:19.056Z,61.01
2017-06-14T01:03:46.605Z,61.35
2017-06-14T01:06:14.170Z,61.19
2017-06-14T01:08:41.748Z,61.12
2017-06-14T01:11:09.370Z,61.01
2017-06-14T01:13:36.951Z,60.83
2017-06-14T01:16:04.539Z,61.19
2017-06-14T01:18:32.082Z,61.04
2017-06-14T01:20:59.670Z,61.48
2017-06-14T01:23:27.286Z,61.27
2017-06-14T01:25:54.866Z,61.76
2017-06-14T01:28:22.422Z,61.48
2017-06-14T01:30:50.044Z,61.14
2017-06-14T01:33:17.665Z,61.11
2017-06-14T01:35:45.269Z,61.04
2017-06-14T01:38:12.849Z,60.97
2017-06-14T01:40:40.448Z,60.43
2017-06-14T01:43:08.016Z,60.66
2017-06-14T01:45:35.651Z,60.88
2017-06-14T01:48:03.226Z,60.66
2017-06-14T01:50:30.857Z,60.82
2017-06-14T01:52:58.462Z,61.06
2017-06-14T01:55:26.002Z,61.39
2017-06-14T01:57:53.558Z,61.92
2017-06-14T02:00:21.154Z,62.25
2017-06-14T02:02:48.763Z,62.20
2017-06-14T02:05:16.318Z,64.08
2017-06-14T02:07:43.896Z,63.85
2017-06-14T02:10:11.434Z,63.42
2017-06-14T02:12:38.989Z,62.97
2017-06-14T02:15:06.568Z,62.82
2017-06-14T02:17:34.105Z,62.45
2017-06-14T02:20:01.646Z,62.68
2017-06-14T02:22:29.252Z,63.04
2017-06-14T02:24:56.825Z,62.58
2017-06-14T02:27:24.363Z,62.56
2017-06-14T02:29:51.942Z,63.40
2017-06-14T02:32:19.581Z,63.52
2017-06-14T02:34:47.117Z,63.57
2017-06-14T02:37:14.684Z,63.32
2017-06-14T02:39:42.285Z,62.95
2017-06-14T02:42:09.818Z,62.80
2017-06-14T02:44:37.362Z,62.58
2017-06-14T02:47:04.945Z,62.27
2017-06-14T02:49:32.486Z,63.35
2017-06-14T02:52:00.078Z,63.01
2017-06-14T02:54:27.652Z,62.87
2017-06-14T02:56:55.193Z,62.47
2017-06-14T02:59:22.729Z,62.39
2017-06-14T03:01:50.318Z,62.49
2017-06-14T03:04:17.860Z,63.11
2017-06-14T03:06:47.050Z,63.38
2017-06-14T03:09:14.643Z,64.43
2017-06-14T03:11:42.185Z,64.41
2017-06-14T03:14:09.722Z,63.82
2017-06-14T03:16:37.314Z,63.54
2017-06-14T03:19:04.916Z,62.63
2017-06-14T03:21:32.452Z,60.81
2017-06-14T03:24:00.021Z,60.65
2017-06-14T03:26:27.594Z,60.56
2017-06-14T03:28:55.170Z,60.54
2017-06-14T03:31:22.796Z,60.36
2017-06-14T03:33:50.384Z,60.95
2017-06-14T03:36:17.946Z,60.12
2017-06-14T03:38:45.542Z,59.94
2017-06-14T03:41:13.085Z,59.70
2017-06-14T03:43:40.659Z,59.84
2017-06-14T03:46:08.289Z,59.41
2017-06-14T03:48:35.828Z,59.44
2017-06-14T03:51:03.369Z,59.35
2017-06-14T03:53:30.973Z,60.29
2017-06-14T03:55:58.545Z,60.73
2017-06-14T03:58:26.322Z,61.00
2017-06-14T04:00:53.949Z,60.71
2017-06-14T04:03:21.498Z,60.84
2017-06-14T04:05:49.045Z,60.93
2017-06-14T04:08:16.642Z,60.16
2017-06-14T04:10:44.410Z,59.83
2017-06-14T04:13:11.949Z,59.45
2017-06-14T04:15:39.557Z,60.24
2017-06-14T04:18:07.091Z,59.11
2017-06-14T04:20:34.648Z,58.32
2017-06-14T04:23:02.250Z,58.86
2017-06-14T04:25:29.801Z,59.42
2017-06-14T04:27:57.363Z,60.04
2017-06-14T04:30:24.962Z,60.31
2017-06-14T04:32:52.507Z,60.21
2017-06-14T04:35:20.033Z,60.31
2017-06-14T04:37:47.681Z,60.49
2017-06-14T04:40:15.234Z,60.51
2017-06-14T04:42:42.783Z,60.21
2017-06-14T04:45:10.369Z,60.49
2017-06-14T04:47:37.905Z,59.59
2017-06-14T04:50:05.782Z,60.42
2017-06-14T04:52:33.359Z,59.44
2017-06-14T04:55:00.912Z,59.31
2017-06-14T04:57:28.453Z,59.21
2017-06-14T04:59:56.033Z,58.04
2017-06-14T05:02:23.609Z,58.50
2017-06-14T05:04:51.146Z,58.80
2017-06-14T05:07:18.682Z,58.33
2017-06-14T05:09:46.290Z,58.22
2017-06-14T05:12:13.841Z,57.41
2017-06-14T05:14:41.391Z,58.04
2017-06-14T05:17:08.965Z,57.91
2017-06-14T05:19:36.496Z,56.79
2017-06-14T05:22:04.037Z,57.23
2017-06-14T05:24:31.605Z,56.57
2017-06-14T05:26:59.394Z,56.30
2017-06-14T05:29:26.937Z,55.99
2017-06-14T05:31:54.513Z,55.97
2017-06-14T05:34:22.050Z,55.35
2017-06-14T05:36:49.608Z,55.83
2017-06-14T05:39:17.189Z,55.45
2017-06-14T05:41:44.727Z,55.61
2017-06-14T05:44:12.270Z,55.92
2017-06-14T05:46:39.854Z,55.52
2017-06-14T05:49:07.385Z,55.11
2017-06-14T05:51:34.917Z,55.95
2017-06-14T05:54:02.474Z,55.24
2017-06-14T05:56:30.014Z,55.05
2017-06-14T05:58:57.543Z,55.24
2017-06-14T06:01:25.117Z,54.08
2017-06-14T06:03:52.658Z,53.05
2017-06-14T06:06:20.202Z,53.27
2017-06-14T06:08:47.787Z,53.18
2017-06-14T06:11:15.331Z,53.66
2017-06-14T06:13:42.866Z,52.61
2017-06-14T06:16:10.438Z,52.70
2017-06-14T06:18:37.986Z,53.10
2017-06-14T06:21:05.516Z,53.45
2017-06-14T06:23:33.089Z,53.30
2017-06-14T06:26:00.642Z,51.90
2017-06-14T06:28:28.209Z,52.95
2017-06-14T06:30:55.885Z,52.04
2017-06-14T06:33:23.428Z,52.18
2017-06-14T06:35:50.965Z,52.06
2017-06-14T06:38:18.533Z,51.53
2017-06-14T06:40:46.074Z,51.04
2017-06-14T06:43:13.621Z,50.10
2017-06-14T06:45:41.210Z,49.82
2017-06-14T06:48:08.738Z,49.44
2017-06-14T06:50:36.270Z,48.76
2017-06-14T06:53:03.852Z,47.15
2017-06-14T06:55:31.394Z,46.14
2017-06-14T06:57:58.924Z,45.02
2017-06-14T07:00:26.623Z,44.02
2017-06-14T07:02:54.154Z,43.25
2017-06-14T07:05:21.682Z,42.54
2017-06-14T07:07:49.253Z,42.54
2017-06-14T07:10:16.780Z,42.72
2017-06-14T07:12:44.318Z,42.56
2017-06-14T07:15:11.890Z,41.86
2017-06-14T07:17:39.425Z,41.42
2017-06-14T07:20:06.964Z,41.62
2017-06-14T07:22:34.550Z,41.79
2017-06-14T07:25:02.075Z,40.51
2017-06-14T07:27:29.602Z,40.69
2017-06-14T07:29:57.169Z,39.93
2017-06-14T07:32:24.734Z,40.81
2017-06-14T07:34:52.278Z,41.86
2017-06-14T07:37:19.810Z,41.64
2017-06-14T07:39:47.384Z,40.82
2017-06-14T07:42:14.919Z,41.87
2017-06-14T07:44:42.456Z,41.02
2017-06-14T07:47:10.017Z,41.22
2017-06-14T07:49:37.549Z,40.86
2017-06-14T07:52:05.093Z,41.53
2017-06-14T07:54:32.666Z,40.25
2017-06-14T07:57:00.199Z,40.51
2017-06-14T07:59:27.730Z,40.74
2017-06-14T08:01:55.299Z,40.35
2017-06-14T08:04:22.827Z,39.39
2017-06-14T08:06:50.355Z,38.83
2017-06-14T08:09:17.925Z,38.37
2017-06-14T08:11:45.462Z,39.49
2017-06-14T08:14:12.995Z,39.05
2017-06-14T08:16:40.569Z,39.42
2017-06-14T08:19:08.102Z,38.73
2017-06-14T08:21:35.635Z,37.82
2017-06-14T08:24:03.205Z,37.96
2017-06-14T08:26:30.733Z,38.33
2017-06-14T08:28:58.270Z,38.94
2017-06-14T08:31:25.835Z,38.80
2017-06-14T08:33:53.372Z,38.44
2017-06-14T08:36:20.902Z,37.46
2017-06-14T08:38:48.470Z,38.22
2017-06-14T08:41:16.003Z,37.33
2017-06-14T08:43:43.541Z,37.58
2017-06-14T08:46:11.109Z,37.86
2017-06-14T08:48:38.632Z,38.02
2017-06-14T08:51:06.165Z,37.79
2017-06-14T08:53:33.733Z,37.00
2017-06-14T08:56:01.306Z,36.72
2017-06-14T08:58:28.829Z,37.26
2017-06-14T09:00:56.389Z,36.99
2017-06-14T09:03:23.914Z,37.13
2017-06-14T09:05:51.461Z,37.01
2017-06-14T09:08:19.021Z,36.80
2017-06-14T09:10:46.545Z,36.86
2017-06-14T09:13:14.079Z,36.93
2017-06-14T09:15:41.647Z,36.28
2017-06-14T09:18:09.189Z,36.73
2017-06-14T09:20:36.750Z,36.64
2017-06-14T09:23:04.313Z,36.64
2017-06-14T09:25:31.850Z,36.55
2017-06-14T09:27:59.398Z,36.45
2017-06-14T09:30:26.984Z,36.12
2017-06-14T09:32:54.518Z,36.90
2017-06-14T09:35:22.054Z,37.69
2017-06-14T09:37:49.632Z,36.52
2017-06-14T09:40:17.161Z,36.63
2017-06-14T09:42:44.694Z,37.89
2017-06-14T09:45:12.268Z,37.05
2017-06-14T09:47:39.805Z,37.77
2017-06-14T09:50:07.334Z,36.50
2017-06-14T09:52:34.913Z,36.40
2017-06-14T09:55:02.449Z,36.17
2017-06-14T09:57:29.977Z,37.77
2017-06-14T09:59:57.537Z,37.44
2017-06-14T10:02:25.126Z,37.83
2017-06-14T10:04:52.652Z,36.39
2017-06-14T10:07:20.183Z,37.53
2017-06-14T10:09:47.758Z,36.84
2017-06-14T10:12:15.303Z,37.61
2017-06-14T10:14:42.834Z,36.85
2017-06-14T10:17:10.470Z,36.27
2017-06-14T10:19:38.237Z,36.04
2017-06-14T10:22:05.834Z,35.59
2017-06-14T10:24:33.404Z,34.03
2017-06-14T10:27:00.942Z,34.47
2017-06-14T10:29:28.492Z,35.00
2017-06-14T10:31:56.050Z,36.27
2017-06-14T10:34:23.585Z,37.25
2017-06-14T10:36:51.132Z,38.70
2017-06-14T10:39:18.696Z,38.82
2017-06-14T10:41:46.217Z,39.04
2017-06-14T10:44:13.749Z,39.10
2017-06-14T10:46:41.331Z,39.00
2017-06-14T10:49:08.865Z,38.71
2017-06-14T10:51:36.413Z,38.13
2017-06-14T10:54:04.000Z,38.40
2017-06-14T10:56:31.825Z,38.94
2017-06-14T10:59:02.244Z,38.69
2017-06-14T11:01:30.282Z,39.40
2017-06-14T11:03:57.830Z,38.64
2017-06-14T11:06:25.930Z,38.67
2017-06-14T11:08:53.493Z,39.01
2017-06-14T11:11:21.024Z,38.46
2017-06-14T11:13:48.553Z,38.46
2017-06-14T11:16:16.161Z,37.94
2017-06-14T11:18:43.695Z,37.87
2017-06-14T11:21:11.600Z,36.22
2017-06-14T11:23:39.164Z,35.44
2017-06-14T11:26:06.693Z,36.17
2017-06-14T11:28:34.237Z,35.81
2017-06-14T11:31:02.062Z,35.52
2017-06-14T11:33:29.618Z,35.15
2017-06-14T11:35:57.162Z,35.18
2017-06-14T11:38:24.761Z,35.75
2017-06-14T11:40:52.293Z,36.24
2017-06-14T11:43:19.829Z,36.28
2017-06-14T11:45:47.749Z,37.04
2017-06-14T11:48:15.310Z,37.46
2017-06-14T11:50:42.841Z,36.27
2017-06-14T11:53:10.410Z,36.58
2017-06-14T11:55:38.223Z,36.68
2017-06-14T11:58:05.814Z,35.94
2017-06-14T12:00:33.389Z,35.52
2017-06-14T12:03:00.922Z,35.74
2017-06-14T12:05:28.801Z,36.59
2017-06-14T12:07:56.370Z,36.03
2017-06-14T12:10:23.897Z,35.61
2017-06-14T12:12:52.306Z,35.28
2017-06-14T12:15:19.876Z,35.72
2017-06-14T12:17:47.405Z,35.38
2017-06-14T12:20:16.250Z,35.32
2017-06-14T12:22:44.355Z,35.29
2017-06-14T12:25:11.894Z,35.10
2017-06-14T12:27:39.419Z,35.09
2017-06-14T12:30:08.237Z,35.28
2017-06-14T12:32:36.042Z,35.79
2017-06-14T12:35:03.571Z,35.58
2017-06-14T12:37:31.174Z,35.47
2017-06-14T12:39:58.955Z,35.78
2017-06-14T12:42:26.530Z,35.54
2017-06-14T12:44:54.153Z,35.25
2017-06-14T12:47:21.808Z,35.38
2017-06-14T12:49:49.582Z,35.20
2017-06-14T12:52:17.216Z,35.56
2017-06-14T12:54:45.021Z,35.06
2017-06-14T12:57:12.634Z,35.13
2017-06-14T12:59:40.986Z,35.08
2017-06-14T13:02:08.561Z,35.58
2017-06-14T13:04:36.097Z,35.36
2017-06-14T13:07:03.934Z,35.17
2017-06-14T13:09:31.577Z,35.37
2017-06-14T13:11:59.126Z,36.00
2017-06-14T13:14:27.746Z,35.91
2017-06-14T13:16:57.011Z,37.29
2017-06-14T13:19:24.933Z,38.67
2017-06-14T13:21:52.533Z,38.39
2017-06-14T13:24:20.103Z,39.69
2017-06-14T13:26:48.062Z,40.08
2017-06-14T13:29:15.675Z,40.64
2017-06-14T13:31:43.577Z,42.20
2017-06-14T13:34:11.110Z,41.78
2017-06-14T13:36:38.872Z,42.67
2017-06-14T13:56:56.229Z,41.30
2017-06-14T13:59:24.353Z,41.04
2017-06-14T14:01:51.946Z,41.73
2017-06-14T14:04:22.313Z,41.14
2017-06-14T14:06:50.340Z,40.83
2017-06-14T14:09:18.537Z,42.45
2017-06-14T14:11:46.276Z,42.92
2017-06-14T14:14:14.125Z,41.73
2017-06-14T14:16:41.734Z,42.57
2017-06-14T14:19:09.279Z,41.14
2017-06-14T14:21:37.045Z,40.87
2017-06-14T14:24:04.641Z,39.93
2017-06-14T14:26:32.206Z,40.45
2017-06-14T14:28:59.744Z,41.20
2017-06-14T14:31:27.327Z,41.67
2017-06-14T14:33:54.862Z,42.75
2017-06-14T14:36:22.459Z,42.37
2017-06-14T14:38:50.030Z,42.72
2017-06-14T14:41:17.846Z,43.36
2017-06-14T14:43:45.406Z,42.69
2017-06-14T14:46:13.011Z,42.99
2017-06-14T14:48:40.887Z,43.17
2017-06-14T14:51:08.419Z,42.87
2017-06-14T14:53:36.024Z,43.78
2017-06-14T14:56:03.937Z,43.92
2017-06-14T14:58:31.465Z,43.99
2017-06-14T15:00:59.264Z,44.46
2017-06-14T15:03:27.077Z,44.20
2017-06-14T15:05:54.617Z,44.13
2017-06-14T15:08:22.178Z,44.17
2017-06-14T15:10:49.730Z,44.35
2017-06-14T15:13:17.302Z,44.87
2017-06-14T15:15:45.700Z,45.20
2017-06-14T15:18:13.258Z,44.93
2017-06-14T15:20:40.841Z,45.34
2017-06-14T15:23:08.952Z,44.58
2017-06-14T15:25:37.529Z,44.39
2017-06-14T15:28:05.426Z,43.89
2017-06-14T15:30:33.950Z,44.48
2017-06-14T15:33:01.876Z,44.59
2017-06-14T15:35:29.663Z,44.21
2017-06-14T15:37:57.308Z,45.67
2017-06-14T15:40:25.086Z,44.79
2017-06-14T15:42:52.877Z,45.11
2017-06-14T15:45:20.485Z,45.91
2017-06-14T15:47:49.006Z,45.86
2017-06-14T15:50:16.567Z,46.15
2017-06-14T15:52:44.169Z,45.99
2017-06-14T15:55:11.745Z,46.22
2017-06-14T15:57:39.327Z,45.78
2017-06-14T16:00:07.202Z,45.85
2017-06-14T16:02:35.005Z,45.86
2017-06-14T16:05:02.605Z,45.51
2017-06-14T16:07:30.420Z,45.59
2017-06-14T16:09:57.983Z,45.97
2017-06-14T16:12:25.579Z,46.07
2017-06-14T16:14:53.418Z,45.85
2017-06-14T16:17:21.212Z,46.41
2017-06-14T16:19:48.818Z,46.15
2017-06-14T16:22:16.413Z,46.91
2017-06-14T16:24:44.178Z,46.63
2017-06-14T16:27:11.798Z,47.24
2017-06-14T16:29:40.254Z,47.07
2017-06-14T16:32:08.942Z,46.61
2017-06-14T16:34:36.790Z,46.77
2017-06-14T16:37:04.405Z,46.44
2017-06-14T16:39:32.614Z,46.09
2017-06-14T16:42:00.194Z,45.91
2017-06-14T16:44:27.765Z,45.82
2017-06-14T16:46:55.373Z,46.05
2017-06-14T16:49:23.045Z,46.38
2017-06-14T16:51:51.181Z,46.25
2017-06-14T16:54:18.784Z,45.80
2017-06-14T16:56:46.390Z,46.23
2017-06-14T16:59:14.189Z,46.49
2017-06-14T17:01:41.787Z,46.62
2017-06-14T17:04:10.037Z,46.69
2017-06-14T17:06:55.891Z,46.44
2017-06-14T17:09:31.127Z,47.12
2017-06-14T17:11:59.918Z,47.03
2017-06-14T17:14:31.093Z,46.91
2017-06-14T17:16:58.922Z,47.54
2017-06-14T17:19:30.788Z,47.60
2017-06-14T17:29:19.658Z,47.41
2017-06-14T17:31:47.250Z,47.26
2017-06-14T17:34:14.850Z,47.99
2017-06-14T17:36:42.385Z,47.82
2017-06-14T17:39:10.053Z,47.63
2017-06-14T17:41:37.628Z,49.18
2017-06-14T17:44:05.173Z,50.44
2017-06-14T17:46:32.770Z,49.66
2017-06-14T17:49:00.302Z,49.06
2017-06-14T17:51:27.852Z,48.59
2017-06-14T17:53:55.592Z,50.60
2017-06-14T17:56:23.131Z,49.72
2017-06-14T17:58:51.298Z,48.48
2017-06-14T18:01:19.245Z,50.05
2017-06-14T18:03:47.122Z,49.84
2017-06-14T18:06:15.639Z,50.41
2017-06-14T18:08:43.922Z,50.21
2017-06-14T18:11:11.702Z,49.83
2017-06-14T18:13:40.261Z,49.79
2017-06-14T18:16:08.828Z,50.19
2017-06-14T18:18:36.521Z,50.28
2017-06-14T18:21:04.319Z,49.74
2017-06-14T18:23:32.057Z,50.09
2017-06-14T18:26:00.364Z,50.91
2017-06-14T18:28:29.190Z,50.08
2017-06-14T18:30:56.813Z,50.11
2017-06-14T18:33:24.442Z,49.25
2017-06-14T18:35:53.334Z,49.65
2017-06-14T18:38:22.074Z,49.56
2017-06-14T18:40:50.705Z,49.17
2017-06-14T18:43:18.385Z,49.35
2017-06-14T18:45:46.062Z,49.20
2017-06-14T18:48:13.730Z,49.34
2017-06-14T18:50:41.325Z,49.26
2017-06-14T18:53:09.552Z,48.43
2017-06-14T18:55:37.318Z,48.71
2017-06-14T18:58:19.236Z,48.95
2017-06-14T19:00:47.982Z,48.18
2017-06-14T19:03:15.772Z,48.64
2017-06-14T19:05:43.725Z,48.74
2017-06-14T19:08:11.380Z,49.13
2017-06-14T19:10:50.248Z,48.88
2017-06-14T19:13:26.038Z,49.46
2017-06-14T19:15:54.957Z,49.78
2017-06-14T19:18:22.849Z,49.63
2017-06-14T19:20:50.525Z,50.12
2017-06-14T19:23:18.274Z,50.17
2017-06-14T19:25:48.764Z,51.16
2017-06-14T19:28:16.545Z,50.52
2017-06-14T19:30:44.145Z,51.17
2017-06-14T19:33:11.721Z,51.41
2017-06-14T19:35:39.281Z,51.75
2017-06-14T19:38:06.854Z,51.51
2017-06-14T19:40:55.390Z,51.59
2017-06-14T19:43:34.397Z,51.22
2017-06-14T19:46:15.524Z,51.12
2017-06-14T19:48:43.295Z,51.50
2017-06-14T19:53:50.742Z,52.24
2017-06-14T19:56:18.277Z,52.48
2017-06-14T19:59:04.181Z,52.63
2017-06-14T20:01:34.202Z,53.09
2017-06-14T20:04:02.005Z,53.26
2017-06-14T20:06:29.546Z,53.73
2017-06-14T20:08:57.113Z,54.05
2017-06-14T20:11:38.338Z,53.96
2017-06-14T20:14:10.797Z,53.87
2017-06-14T20:16:39.418Z,53.69
2017-06-14T20:19:08.281Z,53.98
2017-06-14T20:21:56.389Z,54.03
2017-06-14T20:24:24.129Z,54.43
2017-06-14T20:27:01.591Z,54.68
2017-06-14T20:29:47.129Z,54.29
2017-06-14T20:32:15.512Z,54.51
2017-06-14T20:34:43.053Z,54.61
2017-06-14T20:37:10.588Z,54.60
2017-06-14T20:39:38.407Z,54.42
2017-06-14T20:42:06.196Z,54.36
2017-06-14T20:44:33.741Z,54.40
2017-06-14T20:47:01.325Z,54.40
2017-06-14T20:49:28.880Z,54.35
2017-06-14T20:51:56.701Z,55.16
2017-06-14T20:54:24.264Z,55.14
2017-06-14T20:56:51.805Z,55.04
2017-06-14T20:59:19.342Z,55.01
2017-06-14T21:01:46.950Z,54.77
2017-06-14T21:04:14.494Z,55.16
2017-06-14T21:06:42.122Z,54.75
2017-06-14T21:09:10.890Z,55.00
2017-06-14T21:11:38.446Z,55.31
2017-06-14T21:14:07.173Z,55.07
2017-06-14T21:16:35.476Z,55.15
2017-06-14T21:19:03.012Z,55.19
2017-06-14T21:21:30.544Z,54.37
2017-06-14T21:23:58.144Z,54.36
2017-06-14T21:26:25.766Z,54.69
2017-06-14T21:28:53.313Z,54.86
2017-06-14T21:31:20.883Z,55.06
2017-06-14T21:33:48.446Z,55.21
2017-06-14T21:36:16.021Z,55.04
2017-06-14T21:38:43.589Z,54.77
2017-06-14T21:41:11.197Z,54.54
2017-06-14T21:43:38.770Z,54.68
2017-06-14T21:46:06.337Z,54.40
2017-06-14T21:48:33.894Z,54.81
2017-06-14T21:51:01.487Z,54.29
2017-06-14T21:53:29.115Z,54.13
2017-06-14T21:55:56.752Z,54.25
2017-06-14T21:58:24.427Z,53.99
2017-06-14T22:00:52.109Z,53.18
2017-06-14T22:03:19.677Z,53.11
2017-06-14T22:05:47.261Z,53.60
2017-06-14T22:08:14.955Z,52.78
2017-06-14T22:10:42.560Z,52.55
2017-06-14T22:13:10.138Z,53.04
2017-06-14T22:15:38.002Z,53.15
2017-06-14T22:18:05.623Z,53.50
2017-06-14T22:20:33.192Z,53.17
2017-06-14T22:23:00.872Z,53.04
2017-06-14T22:25:28.412Z,53.58
2017-06-14T22:27:55.950Z,53.05
2017-06-14T22:30:23.683Z,52.58
2017-06-14T22:32:51.243Z,52.90
2017-06-14T22:35:18.778Z,53.10
2017-06-14T22:37:46.376Z,52.79
2017-06-14T22:40:14.026Z,52.45
2017-06-14T22:42:41.656Z,51.74
2017-06-14T22:45:09.371Z,51.62
2017-06-14T22:47:37.013Z,52.05
2017-06-14T22:50:04.542Z,51.56
2017-06-14T22:52:32.113Z,51.60
2017-06-14T22:54:59.658Z,51.95
2017-06-14T22:57:27.196Z,50.83
2017-06-14T22:59:54.762Z,51.37
2017-06-14T23:02:22.352Z,51.72
2017-06-14T23:04:49.894Z,51.78
2017-06-14T23:07:17.461Z,52.03
2017-06-14T23:09:45.902Z,51.69
2017-06-14T23:12:13.476Z,51.71
2017-06-14T23:14:41.030Z,52.31
2017-06-14T23:17:08.594Z,52.19
2017-06-14T23:19:36.127Z,51.79
2017-06-14T23:22:03.681Z,51.55
2017-06-14T23:24:31.250Z,51.62
2017-06-14T23:26:58.793Z,51.76
2017-06-14T23:29:26.329Z,50.87
2017-06-14T23:31:53.896Z,51.01
2017-06-14T23:34:21.421Z,50.83
2017-06-14T23:36:48.958Z,51.25
2017-06-14T23:39:16.527Z,51.41
2017-06-14T23:41:44.061Z,51.07
2017-06-14T23:44:11.610Z,51.40
2017-06-14T23:46:39.252Z,51.54
2017-06-14T23:49:07.644Z,52.32
2017-06-14T23:51:35.231Z,52.54
2017-06-14T23:54:02.804Z,52.14
2017-06-14T23:56:30.346Z,52.21
2017-06-14T23:58:57.881Z,52.60
